Time;durP1;ratioP1;P1;durP2;ratioP2;P2;SDS_P1;SDS_P2;PMS_P1;PMS_P2;Temp;Humidity;BMP_temperature;BMP_pressure;BME280_temperature;BME280_humidity;BME280_pressure;Samples;Min_cycle;Max_cycle;Signal;HPM_P1;HPM_P2
2023/12/24 00:01:06;;;;;;;0.50;0.43;;;;;;;6.97;97.32;96961.22;5081322;28;20201;-57
2023/12/24 00:03:33;;;;;;;0.40;0.40;;;;;;;6.98;97.95;96973.41;5081850;28;20813;-56
2023/12/24 00:05:59;;;;;;;0.80;0.47;;;;;;;6.95;97.74;96963.13;5081512;28;20233;-57
2023/12/24 00:08:28;;;;;;;0.40;0.40;;;;;;;6.88;97.93;96961.91;5080783;28;20217;-55
2023/12/24 00:10:56;;;;;;;1.70;0.60;;;;;;;6.88;98.46;96963.69;5082772;28;20292;-56
2023/12/24 00:13:26;;;;;;;0.37;0.37;;;;;;;6.90;98.23;96970.53;5087353;28;20197;-56
2023/12/24 00:15:54;;;;;;;0.50;0.50;;;;;;;6.90;97.92;96965.25;5088125;28;20282;-55
2023/12/24 00:18:21;;;;;;;0.40;0.40;;;;;;;6.86;98.96;96963.81;5080894;28;20711;-56
2023/12/24 00:20:47;;;;;;;0.47;0.40;;;;;;;6.89;98.84;96968.00;5085357;28;20216;-56
2023/12/24 00:23:14;;;;;;;0.70;0.60;;;;;;;6.87;98.66;96967.28;5086498;28;20218;-56
2023/12/24 00:25:41;;;;;;;0.30;0.30;;;;;;;6.85;98.88;96962.13;5092727;28;20202;-55
2023/12/24 00:28:12;;;;;;;0.40;0.40;;;;;;;6.88;99.20;96966.31;5089875;28;20198;-54
2023/12/24 00:30:38;;;;;;;0.53;0.50;;;;;;;7.06;98.34;96959.69;5082179;28;20206;-55
2023/12/24 00:33:07;;;;;;;1.00;0.60;;;;;;;7.05;98.00;96951.94;5082049;28;20198;-55
2023/12/24 00:35:35;;;;;;;1.03;0.60;;;;;;;6.98;98.40;96941.84;5081038;28;20539;-55
2023/12/24 00:38:03;;;;;;;0.37;0.37;;;;;;;6.99;97.88;96956.69;5083029;28;20584;-56
2023/12/24 00:40:29;;;;;;;0.43;0.43;;;;;;;7.14;97.24;96940.72;5082485;28;20537;-54
2023/12/24 00:42:56;;;;;;;0.47;0.47;;;;;;;6.99;98.33;96954.06;5080575;28;20226;-55
2023/12/24 00:45:23;;;;;;;0.73;0.50;;;;;;;7.01;98.49;96939.00;5083777;28;20202;-57
2023/12/24 00:47:49;;;;;;;0.40;0.40;;;;;;;7.11;98.24;96948.84;5094855;28;20321;-56
2023/12/24 00:50:19;;;;;;;0.70;0.40;;;;;;;6.99;98.42;96946.16;5093584;28;20309;-55
2023/12/24 00:52:46;;;;;;;0.40;0.40;;;;;;;7.11;97.47;96925.19;5090271;28;20289;-56
2023/12/24 00:55:13;;;;;;;0.40;0.30;;;;;;;7.02;98.18;96931.94;5081096;28;20227;-55
2023/12/24 00:57:40;;;;;;;0.40;0.40;;;;;;;6.88;99.56;96934.75;5080961;28;20209;-55
2023/12/24 01:00:09;;;;;;;0.30;0.30;;;;;;;6.86;99.70;96931.41;5080466;28;20675;-55
2023/12/24 01:02:35;;;;;;;0.60;0.60;;;;;;;6.84;100.00;96925.41;5079893;28;20229;-55
2023/12/24 01:05:02;;;;;;;0.40;0.40;;;;;;;6.97;98.83;96924.44;5080710;28;20201;-55
2023/12/24 01:07:30;;;;;;;0.33;0.30;;;;;;;7.01;98.74;96919.78;5083806;28;20648;-55
2023/12/24 01:09:59;;;;;;;0.50;0.50;;;;;;;6.94;99.45;96922.00;5084876;28;20280;-55
2023/12/24 01:12:25;;;;;;;0.40;0.40;;;;;;;7.03;99.14;96935.41;5085162;28;20205;-54
2023/12/24 01:14:52;;;;;;;0.37;0.37;;;;;;;7.07;98.23;96927.19;5084186;28;20197;-54
2023/12/24 01:17:19;;;;;;;0.77;0.50;;;;;;;7.06;98.74;96927.31;5084479;28;20209;-53
2023/12/24 01:19:45;;;;;;;0.40;0.40;;;;;;;7.07;99.16;96926.34;5084249;28;20237;-55
2023/12/24 01:22:12;;;;;;;0.50;0.50;;;;;;;6.97;99.43;96934.94;5084791;28;20546;-55
2023/12/24 01:24:40;;;;;;;0.30;0.30;;;;;;;6.94;99.75;96923.81;5084119;28;21338;-54
2023/12/24 01:27:08;;;;;;;0.30;0.30;;;;;;;7.00;99.13;96934.72;5084919;28;20281;-56
2023/12/24 01:29:34;;;;;;;0.50;0.47;;;;;;;7.08;99.09;96930.66;5083396;28;20202;-55
2023/12/24 01:32:03;;;;;;;0.50;0.50;;;;;;;6.99;100.00;96938.28;5084423;28;20216;-54
2023/12/24 01:34:30;;;;;;;0.50;0.50;;;;;;;6.92;99.88;96937.06;5084404;28;20221;-55
2023/12/24 01:36:58;;;;;;;0.40;0.40;;;;;;;6.88;100.00;96932.97;5084310;28;20292;-54
2023/12/24 01:39:25;;;;;;;0.63;0.40;;;;;;;6.74;100.00;96932.31;5083985;28;20215;-55
2023/12/24 01:41:53;;;;;;;0.37;0.37;;;;;;;6.76;100.00;96936.53;5083934;28;20534;-55
2023/12/24 01:44:24;;;;;;;0.80;0.80;;;;;;;6.73;100.00;96938.53;5083650;28;20642;-55
2023/12/24 01:46:50;;;;;;;0.70;0.70;;;;;;;6.69;100.00;96942.34;5084337;28;20206;-56
2023/12/24 01:49:18;;;;;;;0.87;0.60;;;;;;;6.60;100.00;96940.38;5084059;28;20206;-54
2023/12/24 01:51:45;;;;;;;1.47;0.60;;;;;;;6.76;100.00;96936.53;5083709;28;20699;-56
2023/12/24 01:54:11;;;;;;;0.37;0.37;;;;;;;6.73;100.00;96944.59;5084141;28;20294;-56
2023/12/24 01:56:40;;;;;;;0.70;0.60;;;;;;;6.69;100.00;96935.31;5083575;28;20473;-56
2023/12/24 01:59:09;;;;;;;0.60;0.60;;;;;;;6.73;100.00;96941.16;5083226;28;20247;-56
2023/12/24 02:01:36;;;;;;;1.07;0.60;;;;;;;6.65;100.00;96933.00;5083694;28;20214;-56
2023/12/24 02:04:03;;;;;;;0.57;0.57;;;;;;;6.66;100.00;96938.13;5083509;28;20680;-55
2023/12/24 02:06:30;;;;;;;0.40;0.40;;;;;;;6.71;100.00;96938.63;5083929;28;20201;-55
2023/12/24 02:08:57;;;;;;;0.50;0.50;;;;;;;6.78;100.00;96933.78;5084196;28;20334;-56
2023/12/24 02:11:24;;;;;;;0.50;0.50;;;;;;;6.82;100.00;96929.97;5084037;28;20205;-55
2023/12/24 02:13:51;;;;;;;0.40;0.30;;;;;;;6.87;100.00;96930.47;5083281;28;20208;-57
2023/12/24 02:16:20;;;;;;;0.70;0.70;;;;;;;6.88;100.00;96924.25;5083278;28;20198;-60
2023/12/24 02:18:47;;;;;;;0.37;0.37;;;;;;;6.95;100.00;96928.94;5082855;28;20206;-57
2023/12/24 02:21:15;;;;;;;0.40;0.40;;;;;;;7.01;99.99;96919.78;5082988;28;20632;-54
2023/12/24 02:23:41;;;;;;;0.70;0.70;;;;;;;7.09;99.02;96900.78;5083297;28;20222;-55
2023/12/24 02:26:14;;;;;;;0.40;0.40;;;;;;;7.12;98.91;96905.81;5084019;28;20213;-56
2023/12/24 02:28:42;;;;;;;0.60;0.60;;;;;;;7.07;99.36;96905.31;5082702;28;20195;-56
2023/12/24 02:31:11;;;;;;;0.67;0.63;;;;;;;7.00;99.71;96897.91;5083437;28;20194;-56
2023/12/24 02:33:41;;;;;;;0.50;0.47;;;;;;;7.03;98.98;96901.25;5084955;28;20252;-56
2023/12/24 02:36:08;;;;;;;0.53;0.53;;;;;;;7.02;99.43;96903.03;5085883;28;20270;-59
2023/12/24 02:38:36;;;;;;;0.70;0.50;;;;;;;6.92;99.88;96905.50;5089112;28;20228;-55
2023/12/24 02:41:04;;;;;;;0.63;0.37;;;;;;;6.88;99.87;96898.81;5085866;28;20202;-56
2023/12/24 02:43:30;;;;;;;0.43;0.43;;;;;;;6.86;100.00;96898.09;5084308;28;20237;-56
2023/12/24 02:45:59;;;;;;;0.73;0.50;;;;;;;6.77;100.00;96908.44;5084551;28;20205;-57
2023/12/24 02:48:25;;;;;;;0.50;0.50;;;;;;;6.78;100.00;96904.84;5084292;28;20193;-56
2023/12/24 02:50:52;;;;;;;0.63;0.50;;;;;;;6.76;100.00;96906.78;5091868;28;20220;-56
2023/12/24 02:53:18;;;;;;;0.30;0.30;;;;;;;6.79;100.00;96906.53;5082675;28;20206;-54
2023/12/24 02:55:46;;;;;;;0.60;0.60;;;;;;;6.84;100.00;96897.34;5082558;28;20623;-54
2023/12/24 02:58:13;;;;;;;0.60;0.60;;;;;;;6.81;100.00;96902.00;5081772;28;20269;-56
2023/12/24 03:00:40;;;;;;;0.60;0.60;;;;;;;6.86;100.00;96895.47;5083373;28;20199;-55
2023/12/24 03:03:06;;;;;;;0.80;0.80;;;;;;;6.92;100.00;96891.53;5083731;28;20268;-56
2023/12/24 03:05:33;;;;;;;1.00;0.30;;;;;;;6.82;100.00;96888.75;5095500;28;20658;-56
2023/12/24 03:08:00;;;;;;;0.40;0.40;;;;;;;6.70;100.00;96889.66;5089199;28;20317;-56
2023/12/24 03:10:26;;;;;;;0.47;0.47;;;;;;;6.73;100.00;96884.16;5087820;28;20294;-55
2023/12/24 03:12:57;;;;;;;0.40;0.40;;;;;;;6.81;100.00;96879.19;5081955;28;20211;-56
2023/12/24 03:15:24;;;;;;;0.77;0.77;;;;;;;6.73;100.00;96878.09;5082506;28;20190;-56
2023/12/24 03:17:52;;;;;;;0.50;0.50;;;;;;;6.79;100.00;96878.47;5082179;28;20194;-55
2023/12/24 03:20:21;;;;;;;0.50;0.50;;;;;;;6.89;100.00;96868.94;5086179;28;20218;-57
2023/12/24 03:22:48;;;;;;;0.50;0.50;;;;;;;6.80;100.00;96882.75;5096734;28;20218;-56
2023/12/24 03:25:15;;;;;;;0.60;0.60;;;;;;;6.74;100.00;96887.63;5092043;28;20230;-56
2023/12/24 03:27:41;;;;;;;0.60;0.60;;;;;;;6.61;100.00;96892.97;5092090;28;20273;-56
2023/12/24 03:30:10;;;;;;;0.60;0.60;;;;;;;6.54;100.00;96890.91;5084311;28;20205;-56
2023/12/24 03:32:40;;;;;;;0.50;0.50;;;;;;;6.57;100.00;96898.56;5082681;28;20294;-55
2023/12/24 03:35:06;;;;;;;0.50;0.50;;;;;;;6.42;100.00;96895.25;5082397;28;20217;-55
2023/12/24 03:37:33;;;;;;;0.50;0.50;;;;;;;6.52;100.00;96901.50;5080247;28;20234;-56
2023/12/24 03:40:00;;;;;;;0.60;0.60;;;;;;;6.45;100.00;96908.16;5081894;28;20328;-56
2023/12/24 03:42:27;;;;;;;1.23;0.80;;;;;;;6.41;100.00;96912.78;5082068;28;20561;-55
2023/12/24 03:44:53;;;;;;;0.70;0.53;;;;;;;6.40;100.00;96918.19;5081567;28;20218;-57
2023/12/24 03:47:21;;;;;;;0.60;0.60;;;;;;;6.57;100.00;96916.94;5081905;28;20212;-56
2023/12/24 03:49:48;;;;;;;0.70;0.70;;;;;;;6.48;100.00;96921.09;5080439;28;20312;-55
2023/12/24 03:52:15;;;;;;;0.80;0.80;;;;;;;6.43;100.00;96913.53;5081849;28;20309;-56
2023/12/24 03:54:42;;;;;;;0.60;0.60;;;;;;;6.47;100.00;96908.91;5080984;28;20199;-57
2023/12/24 03:57:09;;;;;;;1.33;0.60;;;;;;;6.59;100.00;96918.50;5082483;28;20295;-55
2023/12/24 03:59:35;;;;;;;0.70;0.70;;;;;;;6.69;100.00;96919.53;5083627;28;20238;-55
2023/12/24 04:02:02;;;;;;;0.70;0.70;;;;;;;6.63;100.00;96919.13;5082156;28;20209;-55
2023/12/24 04:04:32;;;;;;;0.80;0.80;;;;;;;6.65;100.00;96906.72;5081816;28;20308;-55
2023/12/24 04:07:00;;;;;;;0.70;0.70;;;;;;;6.70;100.00;96913.31;5081569;28;20639;-56
2023/12/24 04:09:29;;;;;;;0.50;0.50;;;;;;;6.56;100.00;96910.84;5081287;28;20210;-56
2023/12/24 04:11:59;;;;;;;0.50;0.50;;;;;;;6.46;100.00;96908.06;5081925;28;20750;-56
2023/12/24 04:14:26;;;;;;;0.97;0.80;;;;;;;6.54;100.00;96912.75;5080881;28;20205;-55
2023/12/24 04:16:53;;;;;;;0.70;0.63;;;;;;;6.54;100.00;96912.75;5081049;28;20209;-55
2023/12/24 04:19:21;;;;;;;0.57;0.57;;;;;;;6.54;100.00;96915.38;5081052;28;20212;-55
2023/12/24 04:21:49;;;;;;;0.70;0.70;;;;;;;6.65;100.00;96912.81;5081592;28;20240;-56
2023/12/24 04:24:16;;;;;;;0.67;0.67;;;;;;;6.70;100.00;96908.03;5081826;28;20313;-56
2023/12/24 04:26:42;;;;;;;0.60;0.60;;;;;;;6.65;100.00;96911.97;5080195;28;20241;-56
2023/12/24 04:29:09;;;;;;;0.80;0.80;;;;;;;6.66;100.00;96919.72;5081609;28;20198;-56
2023/12/24 04:31:39;;;;;;;1.03;0.83;;;;;;;6.63;100.00;96913.84;5081250;28;20295;-56
2023/12/24 04:34:06;;;;;;;0.67;0.67;;;;;;;6.57;100.00;96925.66;5081743;28;20206;-55
2023/12/24 04:36:38;;;;;;;0.70;0.70;;;;;;;6.51;100.00;96931.38;5089123;28;20235;-57
2023/12/24 04:39:06;;;;;;;0.60;0.60;;;;;;;6.57;100.00;96920.41;5091338;28;20206;-55
2023/12/24 04:41:32;;;;;;;0.90;0.90;;;;;;;6.65;100.00;96922.50;5096980;28;20230;-55
2023/12/24 04:43:59;;;;;;;0.50;0.50;;;;;;;6.60;100.00;96919.34;5095430;28;20260;-55
2023/12/24 04:46:26;;;;;;;0.80;0.80;;;;;;;6.42;100.00;96905.75;5092290;28;20600;-57
2023/12/24 04:48:52;;;;;;;0.60;0.50;;;;;;;6.58;100.00;96895.81;5085231;28;20714;-56
2023/12/24 04:51:19;;;;;;;0.90;0.87;;;;;;;6.59;100.00;96902.72;5085369;28;20213;-57
2023/12/24 04:53:46;;;;;;;1.07;0.87;;;;;;;6.60;100.00;96900.94;5084903;28;20206;-56
2023/12/24 04:56:21;;;;;;;0.50;0.50;;;;;;;6.51;100.00;96905.09;5084928;28;20244;-56
2023/12/24 04:58:47;;;;;;;0.80;0.80;;;;;;;6.51;100.00;96910.38;5084639;28;20237;-56
2023/12/24 05:01:15;;;;;;;1.23;0.80;;;;;;;6.51;100.00;96907.72;5085271;28;20222;-55
2023/12/24 05:03:42;;;;;;;0.97;0.63;;;;;;;6.48;100.00;96894.81;5084559;28;20234;-57
2023/12/24 05:06:09;;;;;;;0.60;0.60;;;;;;;6.47;100.00;96898.41;5085131;28;20210;-56
2023/12/24 05:08:35;;;;;;;0.73;0.73;;;;;;;6.36;100.00;96895.69;5084118;28;20197;-55
2023/12/24 05:11:04;;;;;;;1.10;0.77;;;;;;;6.33;100.00;96911.69;5084497;28;20194;-56
2023/12/24 05:13:34;;;;;;;0.60;0.60;;;;;;;6.33;100.00;96895.94;5083650;28;20194;-56
2023/12/24 05:16:01;;;;;;;0.70;0.70;;;;;;;6.39;100.00;96893.69;5084783;28;20206;-56
2023/12/24 05:18:27;;;;;;;0.50;0.50;;;;;;;6.42;100.00;96905.75;5083867;28;20203;-56
2023/12/24 05:20:56;;;;;;;0.70;0.70;;;;;;;6.42;100.00;96897.88;5087125;28;20228;-55
2023/12/24 05:23:22;;;;;;;0.50;0.50;;;;;;;6.42;100.00;96908.38;5090478;28;20293;-55
2023/12/24 05:25:51;;;;;;;0.60;0.60;;;;;;;6.35;100.00;96908.00;5095335;28;20304;-55
2023/12/24 05:28:18;;;;;;;0.50;0.50;;;;;;;6.37;100.00;96905.28;5096523;28;20197;-56
2023/12/24 05:30:47;;;;;;;0.50;0.50;;;;;;;6.41;100.00;96898.84;5091377;28;20212;-56
2023/12/24 05:33:13;;;;;;;0.43;0.43;;;;;;;6.40;100.00;96908.50;5085569;28;20241;-56
2023/12/24 05:35:40;;;;;;;0.50;0.50;;;;;;;6.44;100.00;96904.72;5092598;28;20302;-56
2023/12/24 05:38:07;;;;;;;0.63;0.50;;;;;;;6.45;100.00;96900.28;5092250;28;20202;-57
2023/12/24 05:40:33;;;;;;;0.40;0.40;;;;;;;6.42;100.00;96901.34;5089092;28;20199;-56
2023/12/24 05:43:00;;;;;;;0.40;0.40;;;;;;;6.45;100.00;96885.34;5087982;28;20206;-56
2023/12/24 05:45:27;;;;;;;0.30;0.30;;;;;;;6.56;100.00;96866.19;5087083;28;20312;-56
2023/12/24 05:47:55;;;;;;;0.47;0.47;;;;;;;6.54;100.00;96881.22;5086680;28;20267;-56
2023/12/24 05:50:25;;;;;;;0.50;0.50;;;;;;;6.55;100.00;96890.81;5086347;28;20194;-55
2023/12/24 05:52:52;;;;;;;0.50;0.50;;;;;;;6.55;100.00;96890.81;5083755;28;20226;-55
2023/12/24 05:55:18;;;;;;;0.70;0.70;;;;;;;6.59;100.00;96892.22;5083744;28;20210;-56
2023/12/24 05:57:45;;;;;;;0.40;0.40;;;;;;;6.60;100.00;96870.25;5083111;28;20517;-55
2023/12/24 06:00:13;;;;;;;0.30;0.30;;;;;;;6.63;100.00;96874.44;5083875;28;20681;-56
2023/12/24 06:02:39;;;;;;;1.43;0.60;;;;;;;6.62;100.00;96881.50;5083978;28;20202;-57
2023/12/24 06:05:08;;;;;;;0.43;0.40;;;;;;;6.56;100.00;96887.19;5083318;28;20239;-56
2023/12/24 06:07:34;;;;;;;0.80;0.80;;;;;;;6.62;100.00;96892.03;5083707;28;20203;-55
2023/12/24 06:10:01;;;;;;;1.33;1.23;;;;;;;6.65;100.00;96906.72;5082825;28;20654;-54
2023/12/24 06:12:27;;;;;;;0.60;0.60;;;;;;;6.68;100.00;96899.44;5083154;28;20234;-56
2023/12/24 06:14:54;;;;;;;0.77;0.53;;;;;;;6.73;100.00;96905.19;5082612;28;20588;-55
2023/12/24 06:17:20;;;;;;;0.60;0.50;;;;;;;6.75;100.00;96908.56;5083500;28;20290;-55
2023/12/24 06:19:47;;;;;;;0.40;0.40;;;;;;;6.79;100.00;96910.00;5083251;28;20206;-55
2023/12/24 06:22:15;;;;;;;0.50;0.50;;;;;;;6.81;100.00;96908.09;5084392;28;20295;-56
2023/12/24 06:24:42;;;;;;;1.80;0.53;;;;;;;6.74;100.00;96912.13;5083448;28;20317;-56
2023/12/24 06:27:07;;;;;;;0.40;0.40;;;;;;;6.78;100.00;96918.84;5083795;28;20203;-56
2023/12/24 06:29:37;;;;;;;0.73;0.67;;;;;;;6.74;100.00;96916.53;5083085;28;20325;-55
2023/12/24 06:32:04;;;;;;;0.67;0.53;;;;;;;6.79;100.00;96920.53;5083551;28;20206;-56
2023/12/24 06:34:31;;;;;;;1.33;0.40;;;;;;;6.80;100.00;96914.28;5083289;28;20205;-56
2023/12/24 06:36:57;;;;;;;0.57;0.57;;;;;;;6.78;100.00;96908.31;5083739;28;20209;-56
2023/12/24 06:39:25;;;;;;;0.27;0.27;;;;;;;6.79;100.00;96910.00;5083404;28;20232;-56
2023/12/24 06:41:53;;;;;;;0.53;0.50;;;;;;;6.74;100.00;96917.38;5083263;28;20208;-55
2023/12/24 06:44:19;;;;;;;0.50;0.50;;;;;;;6.72;100.00;96918.47;5083098;28;20221;-56
2023/12/24 06:46:46;;;;;;;0.67;0.67;;;;;;;6.77;100.00;96919.78;5081661;28;20309;-56
2023/12/24 06:49:15;;;;;;;0.50;0.50;;;;;;;6.74;100.00;96919.16;5083597;28;20651;-57
2023/12/24 06:51:42;;;;;;;0.57;0.57;;;;;;;6.69;100.00;96930.03;5084210;28;20201;-56
2023/12/24 06:54:09;;;;;;;1.10;0.70;;;;;;;6.71;100.00;96928.13;5082809;28;20206;-55
2023/12/24 06:56:37;;;;;;;0.70;0.70;;;;;;;6.69;100.00;96919.53;5083189;28;20223;-56
2023/12/24 06:59:04;;;;;;;0.60;0.60;;;;;;;6.67;100.00;96924.03;5082869;28;20321;-56
2023/12/24 07:01:30;;;;;;;0.90;0.80;;;;;;;6.61;100.00;96916.63;5083227;28;20623;-56
2023/12/24 07:03:57;;;;;;;0.50;0.50;;;;;;;6.64;100.00;96926.91;5081828;28;20221;-54
2023/12/24 07:06:24;;;;;;;0.97;0.97;;;;;;;6.55;100.00;96921.47;5083197;28;20206;-56
2023/12/24 07:08:51;;;;;;;0.63;0.63;;;;;;;6.63;100.00;96912.06;5082599;28;20202;-56
2023/12/24 07:11:18;;;;;;;1.53;1.20;;;;;;;6.52;100.00;96908.56;5083074;28;20213;-55
2023/12/24 07:13:46;;;;;;;0.60;0.60;;;;;;;6.51;100.00;96902.47;5083635;28;20198;-56
2023/12/24 07:16:13;;;;;;;0.97;0.60;;;;;;;6.36;100.00;96903.59;5083852;28;20202;-56
2023/12/24 07:18:40;;;;;;;0.60;0.60;;;;;;;6.41;100.00;96902.28;5085139;28;20780;-56
2023/12/24 07:21:06;;;;;;;3.07;0.80;;;;;;;6.37;100.00;96897.38;5085193;28;20218;-56
2023/12/24 07:23:33;;;;;;;0.80;0.80;;;;;;;6.27;100.00;96896.38;5086385;28;20194;-55
2023/12/24 07:26:00;;;;;;;0.93;0.73;;;;;;;6.30;100.00;96893.53;5089286;28;20297;-55
2023/12/24 07:28:27;;;;;;;0.83;0.50;;;;;;;6.31;100.00;96893.41;5088816;28;20271;-56
2023/12/24 07:30:54;;;;;;;0.63;0.63;;;;;;;6.32;100.00;96889.00;5090363;28;20558;-56
2023/12/24 07:33:22;;;;;;;0.60;0.60;;;;;;;6.33;100.00;96895.94;5092125;28;20193;-55
2023/12/24 07:35:49;;;;;;;0.60;0.60;;;;;;;6.30;100.00;96880.41;5086287;28;20201;-55
2023/12/24 07:38:16;;;;;;;0.50;0.50;;;;;;;6.33;100.00;96885.41;5083755;28;20208;-56
2023/12/24 07:40:43;;;;;;;0.70;0.70;;;;;;;6.25;100.00;96883.34;5093125;28;20214;-56
2023/12/24 07:43:09;;;;;;;0.77;0.70;;;;;;;6.27;100.00;96872.75;5089736;28;20246;-56
2023/12/24 07:45:38;;;;;;;0.50;0.50;;;;;;;6.34;100.00;96874.78;5091007;28;20333;-55
2023/12/24 07:48:08;;;;;;;0.73;0.73;;;;;;;6.31;100.00;96876.78;5081556;28;20209;-54
2023/12/24 07:50:37;;;;;;;0.80;0.70;;;;;;;6.26;100.00;96869.28;5082430;28;20238;-56
2023/12/24 07:53:05;;;;;;;0.53;0.53;;;;;;;6.38;100.00;96878.03;5081906;28;20641;-56
2023/12/24 07:55:31;;;;;;;0.70;0.70;;;;;;;6.41;100.00;96878.66;5081792;28;20210;-56
2023/12/24 07:57:58;;;;;;;0.93;0.70;;;;;;;6.41;100.00;96867.31;5081104;28;20198;-56
2023/12/24 08:00:26;;;;;;;0.80;0.80;;;;;;;6.44;100.00;96867.94;5081872;28;20313;-56
2023/12/24 08:02:53;;;;;;;1.27;1.00;;;;;;;6.50;100.00;96866.63;5081816;28;20194;-55
2023/12/24 08:05:21;;;;;;;0.57;0.57;;;;;;;6.52;100.00;96862.09;5081746;28;20563;-56
2023/12/24 08:07:48;;;;;;;0.80;0.80;;;;;;;6.56;100.00;96858.28;5081308;28;20641;-56
2023/12/24 08:10:16;;;;;;;0.67;0.67;;;;;;;6.70;100.00;96867.78;5081565;28;20220;-56
2023/12/24 08:12:43;;;;;;;1.00;1.00;;;;;;;6.74;100.00;96870.06;5081656;28;20206;-56
2023/12/24 08:15:10;;;;;;;0.60;0.60;;;;;;;6.87;100.00;96881.34;5081415;28;20217;-55
2023/12/24 08:17:40;;;;;;;0.60;0.60;;;;;;;6.97;100.00;96871.84;5085294;28;20356;-56
2023/12/24 08:20:08;;;;;;;0.60;0.60;;;;;;;7.12;100.00;96859.31;5086411;28;20216;-55
2023/12/24 08:22:38;;;;;;;0.50;0.50;;;;;;;7.16;100.00;96858.13;5085786;28;20667;-56
2023/12/24 08:25:06;;;;;;;0.60;0.60;;;;;;;7.19;100.00;96870.22;5094287;28;20237;-55
2023/12/24 08:27:32;;;;;;;0.67;0.67;;;;;;;7.22;100.00;96862.09;5100636;28;20198;-57
2023/12/24 08:30:01;;;;;;;0.73;0.73;;;;;;;7.24;100.00;96852.28;5101827;28;20274;-56
2023/12/24 08:32:27;;;;;;;1.53;0.80;;;;;;;7.24;100.00;96863.63;5098974;28;20202;-56
2023/12/24 08:34:54;;;;;;;0.60;0.60;;;;;;;7.30;100.00;96875.47;5101680;28;20229;-56
2023/12/24 08:37:20;;;;;;;0.60;0.60;;;;;;;7.40;100.00;96869.38;5098691;28;20289;-57
2023/12/24 08:39:48;;;;;;;0.57;0.57;;;;;;;7.48;100.00;96882.78;5091950;28;20361;-56
2023/12/24 08:42:15;;;;;;;0.50;0.50;;;;;;;7.55;100.00;96883.16;5085669;28;20209;-55
2023/12/24 08:44:42;;;;;;;0.50;0.50;;;;;;;7.61;100.00;96882.69;5085201;28;20231;-54
2023/12/24 08:47:16;;;;;;;0.67;0.67;;;;;;;7.65;100.00;96884.13;5085141;28;20661;-56
2023/12/24 08:49:42;;;;;;;0.60;0.60;;;;;;;7.73;100.00;96887.00;5085679;28;20194;-56
2023/12/24 08:52:10;;;;;;;0.60;0.60;;;;;;;7.81;100.00;96884.63;5085551;28;20208;-56
2023/12/24 08:54:37;;;;;;;0.50;0.50;;;;;;;8.13;98.08;96876.81;5085361;28;20194;-56
2023/12/24 08:57:08;;;;;;;0.83;0.70;;;;;;;8.37;96.27;96876.66;5085541;28;20331;-56
2023/12/24 08:59:34;;;;;;;1.57;1.43;;;;;;;8.73;95.47;96873.66;5084477;28;20245;-56
2023/12/24 09:02:01;;;;;;;0.80;0.80;;;;;;;9.24;93.59;96873.78;5085560;28;20202;-55
2023/12/24 09:04:27;;;;;;;0.70;0.70;;;;;;;9.84;87.09;96870.34;5085035;28;20198;-56
2023/12/24 09:06:54;;;;;;;0.70;0.70;;;;;;;10.48;82.40;96873.47;5085222;28;20417;-56
2023/12/24 09:09:21;;;;;;;0.70;0.70;;;;;;;10.79;81.81;96863.63;5084948;28;20296;-56
2023/12/24 09:11:48;;;;;;;0.60;0.60;;;;;;;11.28;79.71;96862.59;5085189;28;20194;-55
2023/12/24 09:14:16;;;;;;;0.60;0.60;;;;;;;11.52;77.21;96856.84;5086092;28;20592;-56
2023/12/24 09:16:43;;;;;;;0.50;0.50;;;;;;;11.68;76.54;96866.84;5085691;28;20228;-56
2023/12/24 09:19:11;;;;;;;0.60;0.60;;;;;;;12.18;75.14;96862.91;5084838;28;20225;-56
2023/12/24 09:21:38;;;;;;;0.70;0.70;;;;;;;12.51;71.91;96858.78;5085295;28;20214;-56
2023/12/24 09:24:06;;;;;;;1.15;0.55;;;;;;;12.66;70.96;96854.63;5085362;28;20297;-56
2023/12/24 09:26:33;;;;;;;1.05;0.75;;;;;;;12.95;69.58;96857.91;5083685;28;20663;-56
2023/12/24 09:28:59;;;;;;;0.63;0.63;;;;;;;12.94;71.45;96868.66;5084470;28;20198;-55
2023/12/24 09:31:29;;;;;;;0.40;0.40;;;;;;;12.89;70.25;96869.09;5083991;28;20213;-54
2023/12/24 09:33:55;;;;;;;2.05;1.60;;;;;;;12.77;70.43;96859.72;5084959;28;20278;-56
2023/12/24 09:36:22;;;;;;;0.60;0.60;;;;;;;12.75;71.26;96866.97;5085117;28;20208;-55
2023/12/24 09:38:50;;;;;;;0.65;0.65;;;;;;;12.64;70.20;96853.97;5084470;28;20205;-57
2023/12/24 09:41:19;;;;;;;0.40;0.40;;;;;;;12.73;71.48;96862.81;5084752;28;20210;-56
2023/12/24 09:43:45;;;;;;;0.40;0.40;;;;;;;12.43;72.83;96856.88;5083517;28;20220;-57
2023/12/24 09:46:12;;;;;;;0.60;0.60;;;;;;;12.84;72.32;96855.47;5083089;28;20231;-57
2023/12/24 09:48:41;;;;;;;0.60;0.60;;;;;;;13.20;69.00;96866.09;5084225;28;20657;-55
2023/12/24 09:51:08;;;;;;;0.60;0.60;;;;;;;13.69;69.54;96881.41;5085014;28;20218;-59
2023/12/24 09:53:35;;;;;;;0.55;0.50;;;;;;;13.95;65.31;96876.91;5084531;28;20210;-55
2023/12/24 09:56:02;;;;;;;0.60;0.60;;;;;;;14.37;63.20;96869.00;5096941;28;20218;-55
2023/12/24 09:58:29;;;;;;;0.60;0.60;;;;;;;14.28;63.00;96847.78;5099327;28;20230;-57
2023/12/24 10:00:57;;;;;;;0.50;0.50;;;;;;;14.25;63.81;96853.44;5105204;28;20209;-60
2023/12/24 10:03:23;;;;;;;0.93;0.63;;;;;;;13.75;66.28;96846.22;5088874;28;20210;-54
2023/12/24 10:06:00;;;;;;;0.65;0.60;;;;;;;13.68;65.68;96837.22;5083788;28;20268;-55
2023/12/24 10:08:27;;;;;;;0.60;0.50;;;;;;;13.36;69.95;96844.97;5083757;28;20194;-55
2023/12/24 10:10:55;;;;;;;0.50;0.50;;;;;;;12.96;69.73;96830.38;5083762;28;20208;-55
2023/12/24 10:13:23;;;;;;;1.50;1.40;;;;;;;12.70;71.10;96831.28;5083533;28;20224;-58
2023/12/24 10:16:02;;;;;;;0.60;0.60;;;;;;;12.36;71.75;96834.56;5080326;28;20190;-56
2023/12/24 10:18:28;;;;;;;0.40;0.40;;;;;;;11.84;74.92;96822.03;5084443;28;20198;-57
2023/12/24 10:21:05;;;;;;;0.52;0.52;;;;;;;11.92;72.83;96827.44;5083163;28;20222;-57
2023/12/24 10:23:33;;;;;;;0.85;0.80;;;;;;;11.72;73.50;96823.22;5082500;28;20194;-56
2023/12/24 10:26:02;;;;;;;0.70;0.52;;;;;;;11.38;76.71;96825.50;5082458;28;20221;-55
2023/12/24 10:28:30;;;;;;;0.70;0.70;;;;;;;11.23;75.54;96819.03;5082671;28;20307;-56
2023/12/24 10:31:07;;;;;;;0.50;0.50;;;;;;;11.15;76.52;96827.66;5083633;28;20281;-56
2023/12/24 10:33:33;;;;;;;0.60;0.50;;;;;;;11.00;78.65;96823.78;5085420;28;20624;-56
2023/12/24 10:36:00;;;;;;;0.60;0.60;;;;;;;11.15;78.12;96837.41;5085631;28;20205;-56
2023/12/24 10:38:28;;;;;;;0.73;0.63;;;;;;;10.95;78.75;96824.19;5082790;28;20199;-55
2023/12/24 10:40:55;;;;;;;0.50;0.50;;;;;;;11.30;76.62;96828.88;5082803;28;20209;-57
2023/12/24 10:43:22;;;;;;;0.63;0.47;;;;;;;11.60;77.66;96819.88;5082807;28;20198;-56
2023/12/24 10:45:48;;;;;;;0.67;0.57;;;;;;;11.93;77.07;96816.72;5083368;28;20229;-56
2023/12/24 10:48:15;;;;;;;0.50;0.50;;;;;;;12.01;74.39;96818.59;5082115;28;20268;-55
2023/12/24 10:50:43;;;;;;;0.77;0.77;;;;;;;11.98;75.50;96813.59;5082755;28;20642;-54
2023/12/24 10:53:10;;;;;;;0.50;0.50;;;;;;;11.80;75.87;96802.94;5083090;28;20623;-56
2023/12/24 10:55:47;;;;;;;0.53;0.53;;;;;;;11.80;75.83;96800.28;5084047;28;20202;-54
2023/12/24 10:58:20;;;;;;;0.40;0.40;;;;;;;11.76;76.36;96795.44;5082901;28;20317;-56
2023/12/24 11:00:47;;;;;;;0.53;0.53;;;;;;;11.86;74.48;96799.72;5083875;28;20206;-58
2023/12/24 11:03:44;;;;;;;2.20;2.00;;;;;;;11.71;75.59;96790.59;5082942;28;20204;-55
2023/12/24 11:06:11;;;;;;;0.67;0.67;;;;;;;11.57;74.05;96783.09;5082878;28;20225;-56
2023/12/24 11:08:38;;;;;;;0.70;0.70;;;;;;;11.44;75.86;96772.00;5083347;28;20186;-57
2023/12/24 11:11:07;;;;;;;0.57;0.57;;;;;;;11.28;78.32;96761.16;5082430;28;20197;-55
2023/12/24 11:13:47;;;;;;;0.50;0.50;;;;;;;11.18;78.39;96753.25;5086315;28;20189;-57
2023/12/24 11:16:37;;;;;;;1.87;1.77;;;;;;;11.10;78.77;96747.84;5086106;28;20202;-56
2023/12/24 11:19:04;;;;;;;0.90;0.90;;;;;;;11.06;79.38;96753.56;5082861;28;20206;-55
2023/12/24 11:21:31;;;;;;;0.40;0.40;;;;;;;10.96;79.24;96746.50;5083219;28;20266;-54
2023/12/24 11:24:29;;;;;;;0.67;0.67;;;;;;;10.92;77.33;96741.63;5083046;28;20221;-57
2023/12/24 11:26:58;;;;;;;0.50;0.50;;;;;;;10.91;78.43;96739.97;5020459;28;20234;-56
2023/12/24 11:29:42;;;;;;;0.47;0.47;;;;;;;10.76;78.84;96739.59;5067478;28;20209;-56
2023/12/24 11:32:36;;;;;;;0.70;0.70;;;;;;;10.83;77.79;96738.03;5082121;28;20190;-58
2023/12/24 11:35:03;;;;;;;0.60;0.60;;;;;;;10.86;77.77;96731.63;5079785;28;20194;-56
2023/12/24 11:37:34;;;;;;;0.73;0.40;;;;;;;10.91;76.08;96732.03;5082778;28;20779;-56